createdAt,value
2018-10-02T04:40:04.479Z,9.70
2018-10-02T04:42:36.912Z,9.43
2018-10-02T04:45:09.353Z,6.37
2018-10-02T04:47:41.786Z,8.23
2018-10-02T04:50:14.206Z,12.47
2018-10-02T04:52:46.697Z,9.30
2018-10-02T04:55:19.118Z,5.50
2018-10-02T04:57:51.569Z,9.33
2018-10-02T05:00:23.982Z,7.60
2018-10-02T05:02:56.421Z,13.50
2018-10-02T05:05:28.886Z,7.67
2018-10-02T05:08:01.310Z,9.77
2018-10-02T05:10:33.742Z,9.80
2018-10-02T05:13:06.187Z,8.40
2018-10-02T05:15:38.615Z,9.90
2018-10-02T05:18:11.063Z,7.87
2018-10-02T05:20:43.912Z,7.70
2018-10-02T05:23:16.273Z,6.90
2018-10-02T05:25:48.962Z,8.37
2018-10-02T05:28:21.386Z,8.43
2018-10-02T05:30:53.787Z,10.57
2018-10-02T05:33:26.227Z,10.63
2018-10-02T05:35:58.657Z,10.77
2018-10-02T05:38:31.133Z,12.57
2018-10-02T05:41:03.544Z,12.37
2018-10-02T05:43:35.967Z,10.23
2018-10-02T05:46:08.407Z,11.10
2018-10-02T05:48:40.899Z,10.80
2018-10-02T05:51:13.355Z,11.90
2018-10-02T05:53:45.774Z,10.43
2018-10-02T05:56:18.211Z,9.13
2018-10-02T05:58:50.618Z,6.90
2018-10-02T06:01:23.427Z,9.77
2018-10-02T06:03:56.260Z,11.40
2018-10-02T06:06:29.769Z,7.87
2018-10-02T06:09:02.799Z,8.23
2018-10-02T06:11:35.609Z,16.10
2018-10-02T06:14:08.496Z,5.67
2018-10-02T06:16:41.287Z,8.23
2018-10-02T06:19:14.202Z,7.40
2018-10-02T06:21:47.039Z,12.17
2018-10-02T06:24:19.882Z,8.70
2018-10-02T06:26:52.628Z,13.90
2018-10-02T06:29:25.476Z,10.67
2018-10-02T06:31:58.243Z,12.00
2018-10-02T06:34:31.122Z,9.97
2018-10-02T06:37:03.566Z,8.20
2018-10-02T06:39:36.019Z,8.23
2018-10-02T06:42:08.442Z,15.83
2018-10-02T06:44:40.989Z,7.33
2018-10-02T06:47:13.335Z,10.43
2018-10-02T06:49:45.795Z,9.20
2018-10-02T06:52:18.416Z,13.03
2018-10-02T06:54:50.704Z,7.23
2018-10-02T06:57:23.230Z,8.60
2018-10-02T06:59:55.659Z,10.93
2018-10-02T07:02:28.363Z,18.47
2018-10-02T07:05:00.762Z,13.90
2018-10-02T07:07:33.186Z,13.77
2018-10-02T07:10:06.497Z,13.83
2018-10-02T07:12:38.994Z,10.27
2018-10-02T07:15:12.318Z,13.63
2018-10-02T07:17:44.618Z,13.13
2018-10-02T07:20:17.042Z,10.37
2018-10-02T07:22:49.742Z,13.73
2018-10-02T07:25:22.180Z,10.07
2018-10-02T07:27:54.741Z,9.87
2018-10-02T07:30:27.043Z,7.90
2018-10-02T07:32:59.554Z,10.30
2018-10-02T07:35:32.242Z,8.57
2018-10-02T07:38:04.687Z,10.57
2018-10-02T07:40:37.106Z,7.10
2018-10-02T07:43:09.527Z,8.67
2018-10-02T07:45:41.973Z,11.33
2018-10-02T07:48:14.448Z,9.27
2018-10-02T07:50:46.854Z,6.27
2018-10-02T07:53:19.307Z,7.23
2018-10-02T07:55:51.715Z,6.50
2018-10-02T07:58:24.130Z,8.27
2018-10-02T08:00:56.596Z,11.20
2018-10-02T08:03:29.010Z,6.40
2018-10-02T08:06:01.572Z,12.33
2018-10-02T08:08:33.901Z,8.43
2018-10-02T08:11:06.354Z,7.30
2018-10-02T08:13:38.899Z,7.50
2018-10-02T08:16:11.276Z,9.73
2018-10-02T08:18:43.703Z,9.90
2018-10-02T08:21:16.151Z,10.23
2018-10-02T08:23:48.580Z,6.37
2018-10-02T08:26:21.021Z,10.47
2018-10-02T08:28:53.381Z,8.47
2018-10-02T08:31:25.823Z,13.93
2018-10-02T08:33:58.222Z,8.03
2018-10-02T08:36:30.740Z,9.77
2018-10-02T08:39:04.404Z,10.13
2018-10-02T08:41:36.810Z,8.47
2018-10-02T08:44:09.239Z,10.97
2018-10-02T08:46:41.659Z,7.90
2018-10-02T08:49:14.127Z,9.40
2018-10-02T08:51:46.636Z,7.30
2018-10-02T08:54:18.957Z,11.77
2018-10-02T08:56:51.395Z,11.67
2018-10-02T08:59:23.806Z,10.27
2018-10-02T09:01:56.263Z,11.43
2018-10-02T09:04:28.671Z,5.70
2018-10-02T09:07:01.159Z,14.07
2018-10-02T09:09:33.551Z,8.07
2018-10-02T09:12:06.031Z,9.10
2018-10-02T09:14:38.466Z,12.70
2018-10-02T09:17:10.917Z,12.57
2018-10-02T09:19:43.375Z,11.87
2018-10-02T09:22:15.787Z,11.80
2018-10-02T09:24:48.224Z,13.73
2018-10-02T09:27:20.767Z,12.07
2018-10-02T09:29:53.168Z,12.13
2018-10-02T09:32:25.590Z,11.10
2018-10-02T09:34:58.003Z,10.40
2018-10-02T09:37:30.774Z,8.93
2018-10-02T09:40:03.187Z,12.10
2018-10-02T09:42:35.581Z,14.20
2018-10-02T09:45:07.990Z,13.23
2018-10-02T09:47:40.514Z,9.97
2018-10-02T09:50:12.919Z,9.47
2018-10-02T09:52:45.348Z,6.80
2018-10-02T09:55:17.883Z,14.90
2018-10-02T09:57:50.363Z,14.43
2018-10-02T10:00:22.825Z,6.80
2018-10-02T10:02:55.247Z,11.90
2018-10-02T10:05:27.693Z,7.70
2018-10-02T10:08:00.125Z,8.73
2018-10-02T10:10:32.552Z,8.57
2018-10-02T10:13:04.992Z,10.03
2018-10-02T10:15:37.442Z,8.70
2018-10-02T10:18:10.147Z,7.90
2018-10-02T10:20:42.619Z,10.67
2018-10-02T10:23:15.040Z,6.33
2018-10-02T10:25:47.480Z,11.43
2018-10-02T10:28:19.887Z,5.40
2018-10-02T10:30:52.346Z,6.43
2018-10-02T10:33:24.783Z,11.30
2018-10-02T10:35:57.219Z,9.50
2018-10-02T10:38:29.659Z,8.80
2018-10-02T10:41:02.167Z,6.03
2018-10-02T10:43:34.557Z,11.70
2018-10-02T10:46:07.065Z,7.03
2018-10-02T10:48:39.488Z,12.23
2018-10-02T10:51:11.921Z,5.37
2018-10-02T10:53:44.333Z,6.17
2018-10-02T10:56:16.796Z,8.47
2018-10-02T10:58:49.202Z,8.83
2018-10-02T11:01:21.635Z,5.93
2018-10-02T11:03:54.051Z,6.20
2018-10-02T11:06:26.495Z,6.03
2018-10-02T11:08:58.916Z,6.97
2018-10-02T11:11:31.372Z,6.37
2018-10-02T11:14:03.848Z,6.23
2018-10-02T11:16:36.264Z,7.40
2018-10-02T11:19:08.674Z,10.23
2018-10-02T11:21:41.102Z,8.10
2018-10-02T11:24:13.611Z,7.43
2018-10-02T11:26:46.023Z,8.60
2018-10-02T11:29:18.443Z,8.73
2018-10-02T11:31:50.994Z,8.03
2018-10-02T11:34:23.307Z,6.57
2018-10-02T11:36:55.793Z,4.73
2018-10-02T11:39:28.198Z,7.40
2018-10-02T11:42:00.619Z,9.60
2018-10-02T11:44:33.106Z,6.13
2018-10-02T11:47:05.484Z,9.60
2018-10-02T11:49:38.108Z,9.33
2018-10-02T11:52:10.868Z,7.77
2018-10-02T11:54:43.280Z,8.20
2018-10-02T11:57:15.714Z,7.37
2018-10-02T11:59:47.957Z,7.73
2018-10-02T12:02:20.437Z,4.77
2018-10-02T12:04:52.839Z,4.93
2018-10-02T12:07:25.262Z,4.53
2018-10-02T12:09:57.684Z,2.73
2018-10-02T12:12:30.113Z,2.90
2018-10-02T12:15:02.664Z,5.30
2018-10-02T12:17:35.086Z,2.90
2018-10-02T12:20:07.511Z,3.27
2018-10-02T12:22:40.064Z,1.80
2018-10-02T12:25:12.479Z,3.07
2018-10-02T12:27:44.924Z,3.83
2018-10-02T12:30:17.380Z,2.83
2018-10-02T12:32:49.967Z,3.77
2018-10-02T12:35:22.390Z,1.90
2018-10-02T12:37:54.830Z,7.07
2018-10-02T12:40:27.246Z,7.40
2018-10-02T12:42:59.692Z,4.93
2018-10-02T12:45:32.142Z,5.83
2018-10-02T12:48:05.206Z,3.60
2018-10-02T12:50:37.627Z,4.43
2018-10-02T12:53:10.152Z,3.43
2018-10-02T12:55:42.534Z,4.53
2018-10-02T12:58:14.963Z,4.70
2018-10-02T13:00:47.395Z,6.50
2018-10-02T13:03:19.846Z,3.17
2018-10-02T13:05:52.263Z,4.17
2018-10-02T13:08:24.699Z,3.37
2018-10-02T13:10:57.106Z,4.03
2018-10-02T13:13:29.551Z,3.80
2018-10-02T13:16:02.005Z,2.23
2018-10-02T13:18:34.442Z,2.43
2018-10-02T13:21:06.894Z,2.33
2018-10-02T13:23:39.347Z,3.93
2018-10-02T13:26:11.758Z,2.47
2018-10-02T13:28:44.198Z,2.00
2018-10-02T13:31:16.648Z,2.67
2018-10-02T13:33:49.086Z,3.67
2018-10-02T13:36:21.506Z,2.37
2018-10-02T13:38:53.931Z,2.53
2018-10-02T13:41:26.442Z,2.03
2018-10-02T13:43:58.882Z,3.80
2018-10-02T13:46:31.303Z,3.67
2018-10-02T13:49:03.730Z,3.00
2018-10-02T13:51:36.155Z,3.90
2018-10-02T13:54:08.593Z,4.13
2018-10-02T13:56:41.027Z,2.53
2018-10-02T13:59:13.486Z,4.53
2018-10-02T14:01:45.901Z,2.83
2018-10-02T14:04:18.358Z,4.80
2018-10-02T14:06:50.830Z,4.10
2018-10-02T14:09:23.303Z,3.20
2018-10-02T14:11:55.721Z,3.40
2018-10-02T14:14:28.181Z,5.33
2018-10-02T14:17:00.593Z,2.83
2018-10-02T14:19:33.060Z,5.20
2018-10-02T14:22:05.483Z,2.63
2018-10-02T14:24:37.910Z,3.20
2018-10-02T14:27:10.361Z,5.03
2018-10-02T14:29:42.825Z,2.27
2018-10-02T14:32:15.254Z,2.63
2018-10-02T14:34:47.682Z,3.97
2018-10-02T14:37:20.133Z,6.93
2018-10-02T14:39:52.558Z,3.87
2018-10-02T14:42:24.994Z,4.50
2018-10-02T14:44:57.418Z,6.37
2018-10-02T14:47:30.069Z,5.60
2018-10-02T14:50:02.532Z,7.17
2018-10-02T14:52:34.962Z,6.87
2018-10-02T14:55:07.395Z,9.07
2018-10-02T14:57:39.826Z,8.80
2018-10-02T15:00:12.274Z,7.70
2018-10-02T15:02:44.720Z,7.63
2018-10-02T15:05:17.145Z,6.03
2018-10-02T15:07:49.553Z,8.70
2018-10-02T15:10:22.004Z,6.27
2018-10-02T15:12:54.457Z,7.93
2018-10-02T15:15:26.899Z,9.57
2018-10-02T15:17:59.367Z,9.80
2018-10-02T15:20:31.761Z,10.80
2018-10-02T15:23:04.175Z,7.70
2018-10-02T15:25:36.626Z,7.20
2018-10-02T15:28:09.048Z,11.27
2018-10-02T15:30:41.476Z,12.53
2018-10-02T15:33:14.171Z,11.20
2018-10-02T15:35:46.618Z,9.93
2018-10-02T15:38:19.122Z,8.47
2018-10-02T15:40:51.482Z,9.60
2018-10-02T15:43:23.923Z,7.00
2018-10-02T15:45:56.412Z,9.13
2018-10-02T15:48:28.854Z,7.70
2018-10-02T15:51:01.376Z,12.37
2018-10-02T15:53:33.996Z,9.43
2018-10-02T15:56:06.473Z,8.43
2018-10-02T15:58:38.952Z,10.07
2018-10-02T16:01:11.401Z,6.43
2018-10-02T16:03:43.834Z,9.07
2018-10-02T16:06:16.290Z,9.83
2018-10-02T16:08:48.702Z,8.33
2018-10-02T16:11:21.195Z,11.10
2018-10-02T16:13:53.567Z,9.03
2018-10-02T16:16:26.042Z,11.47
2018-10-02T16:18:58.450Z,9.40
2018-10-02T16:21:30.890Z,10.77
2018-10-02T16:24:03.650Z,7.37
2018-10-02T16:26:36.071Z,11.37
2018-10-02T16:29:08.500Z,10.50
2018-10-02T16:31:40.912Z,8.93
2018-10-02T16:34:13.330Z,10.97
2018-10-02T16:36:45.726Z,13.60
2018-10-02T16:39:18.160Z,14.87
2018-10-02T16:41:50.567Z,17.03
2018-10-02T16:44:23.046Z,12.23
2018-10-02T16:46:55.510Z,13.50
2018-10-02T16:49:27.891Z,14.03
2018-10-02T16:52:00.293Z,12.43
2018-10-02T16:54:32.815Z,17.83
2018-10-02T16:57:05.608Z,12.67
2018-10-02T16:59:38.003Z,11.73
2018-10-02T17:02:10.439Z,13.93
2018-10-02T17:04:42.866Z,12.97
2018-10-02T17:07:15.278Z,13.47
2018-10-02T17:09:47.788Z,15.27
2018-10-02T17:12:20.194Z,16.00
2018-10-02T17:14:52.657Z,12.93
2018-10-02T17:17:25.071Z,15.43
2018-10-02T17:19:57.502Z,12.57
2018-10-02T17:22:29.922Z,14.63
2018-10-02T17:25:02.370Z,13.80
2018-10-02T17:27:34.858Z,16.17
2018-10-02T17:30:07.290Z,12.13
2018-10-02T17:32:39.710Z,13.90
2018-10-02T17:35:12.138Z,15.53
2018-10-02T17:37:44.570Z,16.50
2018-10-02T17:40:17.004Z,15.03
2018-10-02T17:42:49.410Z,15.20
2018-10-02T17:45:21.866Z,14.43
2018-10-02T17:47:54.270Z,15.83
2018-10-02T17:50:26.694Z,11.33
2018-10-02T17:52:59.113Z,13.30
2018-10-02T17:55:31.579Z,16.00
2018-10-02T17:58:04.009Z,12.77
2018-10-02T18:00:36.496Z,23.27
2018-10-02T18:03:08.912Z,13.40
2018-10-02T18:05:41.338Z,16.23
2018-10-02T18:08:13.758Z,16.40
2018-10-02T18:10:46.252Z,16.97
2018-10-02T18:13:18.658Z,17.87
2018-10-02T18:15:51.375Z,17.03
2018-10-02T18:18:23.782Z,15.20
2018-10-02T18:20:56.260Z,17.67
2018-10-02T18:23:28.678Z,17.93
2018-10-02T18:26:01.103Z,16.77
2018-10-02T18:28:33.562Z,12.27
2018-10-02T18:31:06.039Z,13.33
2018-10-02T18:33:38.706Z,14.43
2018-10-02T18:36:11.187Z,12.77
2018-10-02T18:38:43.700Z,15.37
2018-10-02T18:41:16.117Z,20.60
2018-10-02T18:43:48.527Z,19.83
2018-10-02T18:46:20.985Z,15.40
2018-10-02T18:48:53.441Z,15.43
2018-10-02T18:51:25.923Z,15.73
2018-10-02T18:53:58.342Z,15.33
2018-10-02T18:56:30.805Z,16.87
2018-10-02T18:59:03.179Z,18.60
2018-10-02T19:01:35.623Z,15.20
2018-10-02T19:04:08.034Z,17.33
2018-10-02T19:06:40.474Z,18.93
2018-10-02T19:09:12.901Z,16.30
2018-10-02T19:11:45.330Z,27.03
2018-10-02T19:14:17.797Z,19.23
2018-10-02T19:16:50.290Z,22.47
2018-10-02T19:19:22.939Z,24.03
2018-10-02T19:21:55.382Z,24.80
2018-10-02T19:24:27.851Z,22.00
2018-10-02T19:27:00.299Z,20.03
2018-10-02T19:29:32.734Z,24.07
2018-10-02T19:32:05.299Z,18.80
2018-10-02T19:34:37.733Z,20.67
2018-10-02T19:37:10.210Z,24.70
2018-10-02T19:39:42.652Z,21.20
2018-10-02T19:42:15.092Z,19.60
2018-10-02T19:44:47.514Z,21.60
2018-10-02T19:47:19.990Z,26.63
2018-10-02T19:49:52.435Z,21.83
2018-10-02T19:52:25.170Z,21.87
2018-10-02T19:54:57.595Z,20.40
2018-10-02T19:57:30.116Z,17.90
2018-10-02T20:00:02.594Z,18.53
2018-10-02T20:02:35.035Z,19.37
2018-10-02T20:05:07.479Z,20.93
2018-10-02T20:07:39.918Z,16.37
2018-10-02T20:10:12.682Z,18.37
2018-10-02T20:12:45.139Z,17.80
2018-10-02T20:15:17.568Z,18.33
2018-10-02T20:17:49.998Z,18.97
2018-10-02T20:20:22.454Z,16.77
2018-10-02T20:22:54.891Z,17.63
2018-10-02T20:25:27.314Z,20.50
2018-10-02T20:27:59.758Z,18.03
2018-10-02T20:30:32.177Z,22.87
2018-10-02T20:33:04.610Z,19.87
2018-10-02T20:35:37.019Z,19.10
2018-10-02T20:38:09.475Z,18.40
2018-10-02T20:40:41.919Z,19.63
2018-10-02T20:43:14.355Z,18.60
2018-10-02T20:45:47.048Z,24.47
